ケアンズ の空港の天気 - METARとTAF

ケアンズ国際空港 ( YBCS / CNS ) - オーストラリア クイーンズランド州ケアンズ
飛行場実況気象(Metar)
観測時間08/16 16:30 AEST (08/16 06:30 UTC)
風向・風速東 5m/s
視程10km以上
天気現象
少しの雲 雲底高度 730m
全天の8割程度の雲 雲底高度 1280m
気温24℃
湿度65%
気圧1013hPa
METARYBCS 160630Z 10009KT 9999 FEW024 BKN042 24/17 Q1013 NOSIG
過去の天気等 Google飛行場航空写真 Wunderground天気予報

過去48時間のMETAR

飛行場予報(TAF)
発表時間: 8/16 15:10 AEST (8/16 05:10 UTC)
予報対象時間: 16日16時 AEST ~ 17日16時 AEST
風向・風速東 6m/s
視程10km以上
全天の4割程度の雲 雲底高度 910m
16日18時 AEST から
風向・風速南南東 4m/s
視程10km以上
全天の4割程度の雲 雲底高度 760m
全天の4割程度の雲 雲底高度 1220m
17日11時 AEST から
風向・風速東 6m/s
視程10km以上
少しの雲 雲底高度 910m
TAF YBCS 160510Z 1606/1706 10012KT 9999 SCT030
FM160800 16007KT 9999 SCT025 SCT040
FM170100 08012KT 9999 FEW030